Time;durP1;ratioP1;P1;durP2;ratioP2;P2;SDS_P1;SDS_P2;PMS_P1;PMS_P2;Temp;Humidity;BMP_temperature;BMP_pressure;BME280_temperature;BME280_humidity;BME280_pressure;Samples;Min_cycle;Max_cycle;Signal;HPM_P1;HPM_P2
2022/03/17 00:00:32;;;;;;;75.50;45.50;;;;;;;22.39;50.06;103582.50;5092522;28;20438;-60
2022/03/17 00:02:58;;;;;;;71.72;44.97;;;;;;;22.38;49.23;103586.25;5092445;28;20068;-60
2022/03/17 00:05:23;;;;;;;77.00;46.35;;;;;;;22.33;49.30;103579.41;5092163;28;20127;-60
2022/03/17 00:07:48;;;;;;;78.80;45.17;;;;;;;22.38;49.57;103575.28;5092380;28;20368;-60
2022/03/17 00:10:15;;;;;;;76.40;46.25;;;;;;;22.33;49.02;103580.25;5092129;28;20450;-60
2022/03/17 00:12:42;;;;;;;80.65;46.95;;;;;;;22.32;49.75;103588.63;5092345;28;20368;-60
2022/03/17 00:15:08;;;;;;;76.22;45.22;;;;;;;22.32;49.15;103575.78;5092233;28;20099;-60
2022/03/17 00:17:34;;;;;;;83.63;47.75;;;;;;;22.31;50.04;103574.06;5092173;28;20073;-60
2022/03/17 00:19:59;;;;;;;78.63;45.65;;;;;;;22.25;49.26;103574.59;5080002;28;20028;-60
2022/03/17 00:22:25;;;;;;;80.15;47.10;;;;;;;22.32;49.29;103575.78;5078465;28;20082;-60
2022/03/17 00:24:50;;;;;;;81.75;46.63;;;;;;;22.67;50.20;103574.59;5092237;28;20052;-60
2022/03/17 00:27:15;;;;;;;80.22;46.03;;;;;;;22.95;52.11;103579.41;5091958;28;20020;-60
2022/03/17 00:29:41;;;;;;;78.13;46.85;;;;;;;23.02;52.81;103583.38;5092203;28;20020;-61
2022/03/17 00:32:07;;;;;;;76.82;45.78;;;;;;;23.11;54.00;103582.53;5091958;28;20483;-60
2022/03/17 00:35:35;;;;;;;79.18;46.05;;;;;;;23.23;55.41;103582.44;5091941;28;20020;-61
2022/03/17 00:37:24;;;;;;;72.93;43.35;;;;;;;23.26;56.12;103587.66;5091748;28;20034;-60
2022/03/17 00:39:49;;;;;;;78.53;45.13;;;;;;;23.36;57.02;103577.59;5092116;28;20028;-60
2022/03/17 00:42:15;;;;;;;75.45;44.22;;;;;;;23.37;56.86;103584.81;5091869;28;20038;-60
2022/03/17 00:44:41;;;;;;;74.63;44.35;;;;;;;23.41;57.50;103591.75;5092149;28;20550;-60
2022/03/17 00:47:07;;;;;;;67.22;41.38;;;;;;;23.47;58.28;103585.69;5090763;28;20470;-60
2022/03/17 00:49:32;;;;;;;72.82;41.65;;;;;;;23.50;58.50;103579.91;5082245;28;20059;-61
2022/03/17 00:51:57;;;;;;;79.00;43.30;;;;;;;23.51;59.09;103589.88;5071725;28;20028;-61
2022/03/17 00:54:23;;;;;;;74.63;44.40;;;;;;;23.55;59.13;103583.13;5070533;28;20028;-59
2022/03/17 00:56:48;;;;;;;73.65;42.25;;;;;;;23.57;59.33;103581.16;5071805;28;20025;-60
2022/03/17 00:59:14;;;;;;;69.25;41.17;;;;;;;23.61;59.55;103584.47;5070474;28;20542;-61
2022/03/17 01:01:39;;;;;;;67.63;41.20;;;;;;;23.62;59.92;103578.84;5073347;28;20027;-60
2022/03/17 01:04:04;;;;;;;72.10;42.90;;;;;;;23.62;59.89;103584.34;5074205;28;20404;-60
2022/03/17 01:06:30;;;;;;;68.50;41.83;;;;;;;23.63;59.49;103580.56;5074972;28;20021;-60
2022/03/17 01:08:55;;;;;;;76.72;40.92;;;;;;;23.68;59.96;103582.88;5075202;28;20028;-60
2022/03/17 01:11:20;;;;;;;69.70;40.63;;;;;;;23.69;60.20;103580.03;5074884;28;20025;-60
2022/03/17 01:13:46;;;;;;;71.53;42.00;;;;;;;23.73;59.23;103579.75;5075035;28;20451;-60
2022/03/17 01:16:11;;;;;;;73.50;42.80;;;;;;;23.74;59.68;103581.47;5074847;28;20119;-60
2022/03/17 01:18:36;;;;;;;69.13;41.72;;;;;;;23.74;59.19;103576.84;5077497;28;20028;-60
2022/03/17 01:21:01;;;;;;;71.25;42.03;;;;;;;23.74;59.82;103575.97;5095274;28;20012;-60
2022/03/17 01:23:27;;;;;;;68.88;41.30;;;;;;;23.78;59.32;103577.44;5094926;28;20027;-60
2022/03/17 01:25:52;;;;;;;71.90;41.45;;;;;;;23.84;59.04;103572.22;5095401;28;20210;-60
2022/03/17 01:28:17;;;;;;;71.07;41.25;;;;;;;23.83;58.83;103570.47;5094766;28;20467;-61
2022/03/17 01:30:43;;;;;;;67.00;40.35;;;;;;;23.82;58.67;103573.38;5094445;28;20040;-60
2022/03/17 01:33:08;;;;;;;71.78;42.10;;;;;;;23.83;59.28;103573.22;5094791;28;20048;-61
2022/03/17 01:35:33;;;;;;;71.93;41.83;;;;;;;23.87;58.88;103571.09;5095038;28;20039;-60
2022/03/17 01:37:58;;;;;;;70.40;41.35;;;;;;;23.90;59.20;103581.78;5094864;28;20031;-60
2022/03/17 01:40:24;;;;;;;66.85;39.60;;;;;;;23.90;58.81;103570.78;5094562;28;20028;-60
2022/03/17 01:42:49;;;;;;;72.28;41.20;;;;;;;23.91;59.01;103578.91;5094859;28;20098;-60
2022/03/17 01:45:16;;;;;;;67.72;39.83;;;;;;;23.94;59.36;103577.72;5094618;28;20107;-61
2022/03/17 01:47:43;;;;;;;67.57;40.40;;;;;;;23.89;59.42;103577.31;5094671;28;20027;-60
2022/03/17 01:50:11;;;;;;;72.15;42.13;;;;;;;23.94;58.83;103578.59;5079201;28;20074;-61
2022/03/17 01:52:38;;;;;;;67.68;40.58;;;;;;;23.97;58.57;103577.44;5074316;28;20539;-60
2022/03/17 01:55:05;;;;;;;70.95;39.90;;;;;;;23.96;59.00;103576.56;5074476;28;20074;-60
2022/03/17 01:57:31;;;;;;;72.60;41.00;;;;;;;23.96;58.20;103578.47;5075204;28;20379;-61
2022/03/17 01:59:58;;;;;;;67.47;42.25;;;;;;;23.97;58.28;103582.94;5074200;28;20028;-60
2022/03/17 02:02:24;;;;;;;69.05;41.00;;;;;;;23.99;58.17;103580.91;5073833;28;20111;-60
2022/03/17 02:04:50;;;;;;;69.68;40.72;;;;;;;24.00;57.43;103585.41;5074218;28;20115;-60
2022/03/17 02:07:15;;;;;;;67.45;39.55;;;;;;;23.98;57.99;103573.69;5073889;28;20548;-62
2022/03/17 02:09:43;;;;;;;68.43;41.28;;;;;;;23.99;57.04;103581.78;5072749;28;20515;-60
2022/03/17 02:14:58;;;;;;;65.38;41.65;;;;;;;23.99;56.68;103575.41;5074199;28;20063;-60
2022/03/17 02:17:24;;;;;;;66.70;42.05;;;;;;;23.96;56.02;103565.59;5073661;28;20051;-60
2022/03/17 02:19:50;;;;;;;67.13;40.88;;;;;;;23.98;56.17;103568.19;5084394;28;20406;-60
2022/03/17 02:22:19;;;;;;;62.45;38.97;;;;;;;24.00;55.52;103567.03;5093711;28;20020;-62
2022/03/17 02:27:33;;;;;;;70.03;40.17;;;;;;;23.99;55.03;103572.66;5094289;28;20054;-60
2022/03/17 02:29:59;;;;;;;75.18;43.08;;;;;;;23.98;55.54;103573.69;5093870;28;20028;-60
2022/03/17 02:32:24;;;;;;;72.85;41.72;;;;;;;23.95;55.19;103574.84;5093359;28;20069;-60
2022/03/17 02:34:50;;;;;;;71.38;41.13;;;;;;;23.97;54.92;103578.31;5093796;28;20028;-61
2022/03/17 02:37:16;;;;;;;63.72;39.88;;;;;;;24.03;54.60;103581.50;5093492;28;20031;-62
2022/03/17 02:39:42;;;;;;;69.43;41.17;;;;;;;24.00;54.91;103577.16;5092701;28;20048;-61
2022/03/17 02:42:10;;;;;;;66.22;40.70;;;;;;;24.02;54.80;103569.66;5073135;28;20039;-60
2022/03/17 02:44:36;;;;;;;70.70;40.85;;;;;;;24.02;55.34;103572.41;5072271;28;20044;-61
2022/03/17 02:47:05;;;;;;;68.72;40.97;;;;;;;24.02;54.89;103553.16;5073225;28;20523;-61
2022/03/17 02:49:30;;;;;;;68.82;40.72;;;;;;;24.01;55.05;103556.91;5073163;28;20043;-61
2022/03/17 02:51:56;;;;;;;73.82;42.38;;;;;;;24.03;54.65;103565.91;5073192;28;20104;-60
2022/03/17 02:54:21;;;;;;;70.85;41.40;;;;;;;24.03;54.09;103571.41;5072928;28;20025;-60
2022/03/17 02:56:46;;;;;;;69.53;39.78;;;;;;;24.05;54.37;103563.88;5073083;28;20452;-60
2022/03/17 02:59:12;;;;;;;65.60;41.55;;;;;;;24.06;54.10;103575.72;5072948;28;20127;-60
2022/03/17 03:01:37;;;;;;;64.35;40.88;;;;;;;24.07;54.83;103572.84;5072898;28;20024;-60
2022/03/17 03:04:02;;;;;;;65.55;39.97;;;;;;;24.04;54.26;103567.63;5073006;28;20479;-60
2022/03/17 03:06:27;;;;;;;67.28;41.50;;;;;;;24.04;54.13;103575.00;5072769;28;20025;-61
2022/03/17 03:08:53;;;;;;;66.60;41.10;;;;;;;24.03;54.07;103571.41;5072826;28;20035;-61
2022/03/17 03:11:18;;;;;;;69.10;40.42;;;;;;;24.02;54.17;103566.91;5072600;28;20066;-60
2022/03/17 03:13:44;;;;;;;67.72;41.05;;;;;;;24.02;54.47;103577.91;5072791;28;20051;-60
2022/03/17 03:16:09;;;;;;;65.93;40.38;;;;;;;24.08;54.55;103571.81;5072742;28;20029;-60
2022/03/17 03:18:36;;;;;;;68.95;41.00;;;;;;;24.09;54.49;103565.31;5075820;28;20035;-60
2022/03/17 03:21:01;;;;;;;65.05;40.20;;;;;;;24.06;54.76;103568.34;5092285;28;20015;-60
2022/03/17 03:23:26;;;;;;;67.20;41.25;;;;;;;24.07;54.39;103560.97;5092384;28;20818;-61
2022/03/17 03:25:51;;;;;;;70.43;41.67;;;;;;;24.09;54.33;103559.81;5092920;28;20058;-60
2022/03/17 03:28:17;;;;;;;73.00;42.55;;;;;;;24.08;54.64;103558.06;5092624;28;20028;-60
2022/03/17 03:30:42;;;;;;;72.38;41.17;;;;;;;24.08;54.58;103557.22;5092763;28;20463;-60
2022/03/17 03:33:07;;;;;;;69.78;40.67;;;;;;;24.07;54.49;103556.34;5092434;28;20130;-60
2022/03/17 03:38:18;;;;;;;67.78;40.92;;;;;;;24.10;55.38;103556.03;5092522;28;20407;-61
2022/03/17 03:40:44;;;;;;;70.53;41.35;;;;;;;24.07;55.49;103548.09;5092700;28;20028;-60
2022/03/17 03:43:09;;;;;;;67.22;41.92;;;;;;;;;;5092534;28;20028;-61
2022/03/17 03:45:34;;;;;;;66.50;42.10;;;;;;;24.10;55.42;103549.69;5092487;28;20035;-60
2022/03/17 03:47:59;;;;;;;67.75;41.72;;;;;;;24.08;55.82;103549.84;5091240;28;20253;-60
2022/03/17 03:50:25;;;;;;;69.90;40.70;;;;;;;24.09;55.10;103553.44;5068538;28;20025;-62
2022/03/17 03:52:50;;;;;;;67.82;41.72;;;;;;;;;;5072124;28;20028;-60
2022/03/17 03:55:16;;;;;;;61.97;37.65;;;;;;;24.06;55.92;103554.59;5072130;28;20029;-60
2022/03/17 03:57:42;;;;;;;71.75;42.25;;;;;;;24.05;55.84;103552.88;5072555;28;20021;-61
2022/03/17 04:02:52;;;;;;;68.05;41.10;;;;;;;24.10;55.36;103556.03;5072538;28;20028;-60
2022/03/17 04:05:19;;;;;;;64.65;38.75;;;;;;;24.09;55.34;103558.94;5072347;28;20028;-61
2022/03/17 04:07:45;;;;;;;64.80;40.70;;;;;;;;;;5072265;28;20063;-61
2022/03/17 04:10:10;;;;;;;73.72;40.88;;;;;;;24.11;55.83;103552.28;5072258;28;20097;-60
2022/03/17 04:12:35;;;;;;;62.88;40.10;;;;;;;24.14;56.05;103535.50;5072062;28;20159;-60
2022/03/17 04:15:01;;;;;;;62.65;38.70;;;;;;;24.10;56.05;103525.81;5072096;28;20043;-60
2022/03/17 04:17:26;;;;;;;71.90;40.90;;;;;;;24.08;56.45;103536.09;5071928;28;20486;-61
2022/03/17 04:19:51;;;;;;;64.95;39.95;;;;;;;24.06;56.76;103535.38;5088401;28;20021;-61
2022/03/17 04:22:16;;;;;;;71.72;41.30;;;;;;;24.04;56.07;103540.16;5092004;28;20051;-61
2022/03/17 04:24:42;;;;;;;68.45;41.58;;;;;;;24.11;56.20;103540.41;5092279;28;20035;-60
2022/03/17 04:27:07;;;;;;;75.57;42.78;;;;;;;24.11;57.17;103534.94;5092192;28;20052;-60
2022/03/17 04:29:33;;;;;;;67.65;39.63;;;;;;;24.13;57.68;103543.88;5092103;28;20024;-60
2022/03/17 04:31:58;;;;;;;69.18;42.05;;;;;;;24.10;56.54;103534.06;5091993;28;20075;-60
2022/03/17 04:34:24;;;;;;;71.70;41.10;;;;;;;24.08;56.48;103540.72;5091942;28;20028;-60
2022/03/17 04:36:50;;;;;;;66.70;40.58;;;;;;;24.14;56.55;103540.13;5095402;28;20063;-60
2022/03/17 04:39:15;;;;;;;69.55;40.75;;;;;;;24.00;56.23;103539.53;5095766;28;20039;-61
2022/03/17 04:41:40;;;;;;;65.38;40.05;;;;;;;24.07;56.34;103537.09;5095997;28;20089;-60
2022/03/17 04:44:06;;;;;;;64.05;38.70;;;;;;;24.07;57.15;103548.09;5095833;28;20024;-60
2022/03/17 04:46:32;;;;;;;67.15;42.15;;;;;;;24.02;56.17;103553.16;5095699;28;20519;-60
2022/03/17 04:48:57;;;;;;;66.15;40.22;;;;;;;23.99;56.50;103558.94;5093834;28;20119;-60
2022/03/17 04:51:23;;;;;;;67.80;40.50;;;;;;;24.06;56.07;103565.59;5094836;28;20035;-60
2022/03/17 04:53:48;;;;;;;71.82;42.05;;;;;;;23.98;55.24;103568.19;5095736;28;20059;-60
2022/03/17 04:56:16;;;;;;;67.65;39.75;;;;;;;23.98;55.44;103565.44;5095528;28;20181;-60
2022/03/17 04:58:42;;;;;;;62.88;38.80;;;;;;;24.02;55.78;103575.16;5095754;28;20061;-61
2022/03/17 05:01:09;;;;;;;69.38;40.03;;;;;;;23.95;55.08;103568.47;5095545;28;20024;-60
2022/03/17 05:03:35;;;;;;;69.32;40.50;;;;;;;24.12;54.50;103559.50;5095461;28;20031;-60
2022/03/17 05:06:02;;;;;;;69.97;40.45;;;;;;;24.16;53.01;103566.44;5095459;28;20066;-60
2022/03/17 05:08:27;;;;;;;70.45;39.85;;;;;;;24.14;53.47;103562.97;5095271;28;20028;-60
2022/03/17 05:10:53;;;;;;;65.57;40.17;;;;;;;24.17;52.33;103568.19;5095427;28;20035;-61
2022/03/17 05:13:20;;;;;;;63.05;39.00;;;;;;;24.34;53.59;103571.25;5095130;28;20048;-60
2022/03/17 05:15:48;;;;;;;67.63;40.05;;;;;;;24.32;52.67;103559.53;5095422;28;20032;-60
2022/03/17 05:18:14;;;;;;;69.05;39.72;;;;;;;24.25;52.06;103571.09;5089839;28;20032;-60
2022/03/17 05:20:41;;;;;;;63.15;38.47;;;;;;;24.33;51.26;103573.13;5074946;28;20062;-60
2022/03/17 05:23:17;;;;;;;65.70;39.58;;;;;;;24.32;51.66;103567.78;5074964;28;20032;-60
2022/03/17 05:25:44;;;;;;;65.35;38.83;;;;;;;24.42;51.12;103576.91;5074856;28;20032;-60
2022/03/17 05:28:10;;;;;;;61.10;38.45;;;;;;;24.44;52.86;103574.88;5074634;28;20016;-60
2022/03/17 05:30:37;;;;;;;66.68;38.78;;;;;;;24.48;52.33;103574.41;5074631;28;20039;-60
2022/03/17 05:33:04;;;;;;;68.32;38.97;;;;;;;24.48;51.64;103562.56;5074662;28;20041;-60
2022/03/17 05:35:30;;;;;;;63.53;38.13;;;;;;;24.65;53.07;103569.19;5074470;28;20028;-60
2022/03/17 05:37:55;;;;;;;61.13;37.13;;;;;;;24.54;51.23;103571.09;5074525;28;20024;-60
2022/03/17 05:40:22;;;;;;;64.13;37.15;;;;;;;24.56;51.61;103574.56;5074423;28;20025;-60
2022/03/17 05:42:52;;;;;;;61.80;38.38;;;;;;;24.49;50.57;103572.53;5074660;28;20025;-60
2022/03/17 05:45:18;;;;;;;59.55;36.72;;;;;;;24.60;52.59;103577.88;5074355;28;20032;-60
2022/03/17 05:47:45;;;;;;;63.08;38.40;;;;;;;24.53;52.34;103585.88;5076710;28;20032;-60
2022/03/17 05:50:13;;;;;;;61.67;37.40;;;;;;;24.67;51.44;103581.75;5094333;28;20031;-60
2022/03/17 05:52:40;;;;;;;59.65;37.20;;;;;;;24.73;52.24;103589.44;5094877;28;20028;-60
2022/03/17 05:55:06;;;;;;;60.20;37.67;;;;;;;24.62;51.17;103583.22;5094571;28;20035;-60
2022/03/17 05:57:35;;;;;;;60.67;35.65;;;;;;;24.53;50.55;103585.88;5094388;28;20356;-60
2022/03/17 06:00:01;;;;;;;64.10;36.95;;;;;;;24.68;50.99;103586.25;5094380;28;20534;-60
2022/03/17 06:02:26;;;;;;;62.22;37.45;;;;;;;24.59;51.10;103589.91;5094201;28;20024;-60
2022/03/17 06:04:51;;;;;;;60.85;36.92;;;;;;;24.57;50.63;103591.94;5094450;28;20035;-61
2022/03/17 06:07:16;;;;;;;66.13;38.50;;;;;;;24.62;51.74;103594.22;5094061;28;20166;-60
2022/03/17 06:09:42;;;;;;;59.15;37.40;;;;;;;24.58;50.80;103596.41;5094311;28;20052;-60
2022/03/17 06:12:08;;;;;;;65.15;38.25;;;;;;;24.54;51.17;103581.22;5094131;28;20028;-60
2022/03/17 06:14:34;;;;;;;65.07;38.33;;;;;;;24.56;51.25;103595.69;5094111;28;20022;-60
2022/03/17 06:16:59;;;;;;;63.40;38.40;;;;;;;24.56;50.91;103584.69;5094218;28;20024;-60
2022/03/17 06:19:24;;;;;;;67.38;39.92;;;;;;;24.52;51.14;103577.72;5076833;28;20119;-60
2022/03/17 06:21:50;;;;;;;59.63;36.35;;;;;;;24.57;51.65;103576.31;5073793;28;20070;-60
2022/03/17 06:24:15;;;;;;;61.42;37.58;;;;;;;24.53;50.32;103582.25;5073454;28;20479;-60
2022/03/17 06:26:41;;;;;;;64.43;39.30;;;;;;;24.57;51.07;103580.94;5073700;28;20030;-61
2022/03/17 06:29:06;;;;;;;65.85;38.00;;;;;;;24.52;51.33;103580.47;5073674;28;20040;-60
2022/03/17 06:31:31;;;;;;;64.60;37.83;;;;;;;24.58;50.86;103585.41;5073418;28;20489;-60
2022/03/17 06:33:57;;;;;;;63.10;38.83;;;;;;;24.59;51.75;103589.91;5073500;28;20028;-61
2022/03/17 06:36:23;;;;;;;64.45;38.63;;;;;;;24.55;50.93;103589.34;5073270;28;20020;-60
2022/03/17 06:38:48;;;;;;;62.83;37.80;;;;;;;24.57;51.48;103575.44;5073500;28;20116;-60
2022/03/17 06:41:14;;;;;;;62.90;38.13;;;;;;;24.55;51.63;103577.47;5073324;28;20456;-60
2022/03/17 06:43:39;;;;;;;60.85;36.97;;;;;;;24.56;51.40;103571.81;5073345;28;20032;-60
2022/03/17 06:46:04;;;;;;;60.03;37.10;;;;;;;24.53;51.73;103574.88;5073251;28;20024;-60
2022/03/17 06:48:29;;;;;;;66.22;38.13;;;;;;;24.51;50.75;103562.25;5081810;28;20027;-60
2022/03/17 06:50:55;;;;;;;62.42;39.20;;;;;;;24.54;51.67;103567.47;5093374;28;20028;-60
2022/03/17 06:53:20;;;;;;;58.55;36.33;;;;;;;24.59;51.83;103573.41;5093356;28;20028;-60
2022/03/17 06:55:45;;;;;;;62.40;37.05;;;;;;;24.65;51.89;103561.78;5093477;28;20024;-60
2022/03/17 06:58:11;;;;;;;62.42;37.50;;;;;;;24.62;52.74;103573.09;5092597;28;20078;-61
2022/03/17 07:00:36;;;;;;;63.13;37.63;;;;;;;24.59;53.07;103574.25;5093253;28;20089;-61
2022/03/17 07:03:01;;;;;;;65.50;37.58;;;;;;;24.56;52.57;103573.69;5093271;28;20027;-60
2022/03/17 07:05:28;;;;;;;61.08;37.95;;;;;;;24.58;52.76;103577.16;5093325;28;20066;-60
2022/03/17 07:07:53;;;;;;;64.18;37.80;;;;;;;24.60;52.98;103569.63;5093228;28;20029;-60
2022/03/17 07:10:18;;;;;;;61.50;38.92;;;;;;;24.57;52.72;103565.31;5092819;28;20061;-60
2022/03/17 07:12:44;;;;;;;62.38;37.47;;;;;;;24.57;52.72;103570.78;5093130;28;20024;-61
2022/03/17 07:15:10;;;;;;;64.10;38.20;;;;;;;24.59;53.25;103568.75;5092995;28;20027;-61
2022/03/17 07:17:39;;;;;;;60.72;38.28;;;;;;;24.53;53.46;103563.00;5089254;28;20052;-60
2022/03/17 07:20:06;;;;;;;63.42;39.42;;;;;;;24.59;52.51;103567.91;5072931;28;20020;-61
2022/03/17 07:22:32;;;;;;;60.67;37.85;;;;;;;24.52;52.68;103562.13;5072510;28;20035;-60
2022/03/17 07:24:57;;;;;;;64.82;37.10;;;;;;;24.53;51.20;103563.00;5072694;28;20024;-60
2022/03/17 07:27:23;;;;;;;60.25;37.58;;;;;;;24.55;50.96;103571.97;5072359;28;20024;-60
2022/03/17 07:29:49;;;;;;;60.35;36.50;;;;;;;24.56;50.42;103557.19;5072596;28;20016;-61
2022/03/17 07:32:14;;;;;;;61.30;36.97;;;;;;;24.55;50.20;103555.47;5070859;28;20047;-61
2022/03/17 07:34:39;;;;;;;59.83;37.17;;;;;;;24.52;49.71;103556.63;5072410;28;20471;-60
2022/03/17 07:37:05;;;;;;;59.20;35.85;;;;;;;24.53;48.51;103563.00;5072556;28;20048;-61
2022/03/17 07:39:30;;;;;;;62.47;37.80;;;;;;;24.53;49.04;103554.75;5072236;28;20480;-60
2022/03/17 07:41:56;;;;;;;64.45;38.45;;;;;;;24.54;48.98;103565.59;5072660;28;20024;-60
2022/03/17 07:44:21;;;;;;;61.72;37.03;;;;;;;24.49;49.71;103578.91;5071745;28;20033;-60
2022/03/17 07:46:48;;;;;;;58.33;35.85;;;;;;;24.49;48.50;103578.03;5072241;28;20024;-60
2022/03/17 07:49:13;;;;;;;57.55;35.70;;;;;;;24.48;48.03;103584.56;5088759;28;20490;-62
2022/03/17 07:51:39;;;;;;;62.92;37.45;;;;;;;24.48;48.96;103577.16;5092200;28;20029;-60
2022/03/17 07:54:04;;;;;;;65.85;37.72;;;;;;;24.45;49.67;103576.59;5092442;28;20059;-60
2022/03/17 07:56:30;;;;;;;63.47;38.40;;;;;;;24.37;49.65;103579.22;5092224;28;20467;-60
2022/03/17 07:58:55;;;;;;;65.07;38.30;;;;;;;24.38;51.18;103580.97;5091134;28;20034;-60
2022/03/17 08:01:24;;;;;;;66.93;38.90;;;;;;;24.37;51.67;103580.09;5092012;28;20143;-61
2022/03/17 08:03:50;;;;;;;67.60;38.20;;;;;;;24.38;52.05;103578.22;5092298;28;20475;-60
2022/03/17 08:06:15;;;;;;;66.18;39.40;;;;;;;24.37;51.73;103581.97;5091931;28;20040;-60
2022/03/17 08:08:41;;;;;;;63.70;39.20;;;;;;;24.35;54.20;103570.22;5092298;28;20035;-60
2022/03/17 08:11:07;;;;;;;63.55;38.80;;;;;;;24.47;53.27;103567.19;5096027;28;20065;-62
2022/03/17 08:13:32;;;;;;;61.78;38.08;;;;;;;24.40;54.23;103567.94;5096629;28;20069;-60
2022/03/17 08:15:58;;;;;;;82.70;45.72;;;;;;;24.59;55.33;103574.25;5096272;28;20485;-68
2022/03/17 08:18:24;;;;;;;81.45;48.35;;;;;;;24.60;55.32;103564.13;5083388;28;20032;-62
2022/03/17 08:20:49;;;;;;;94.80;57.88;;;;;;;24.50;57.09;103566.88;5076162;28;20028;-60
2022/03/17 08:23:21;;;;;;;170.30;105.57;;;;;;;24.71;59.35;103566.72;5076006;28;20516;-64
2022/03/17 08:25:48;;;;;;;114.85;70.32;;;;;;;24.46;54.81;103579.19;5075813;28;20419;-61
2022/03/17 08:28:13;;;;;;;100.25;60.85;;;;;;;24.69;55.55;103579.75;5075752;28;20024;-65
2022/03/17 08:30:38;;;;;;;89.95;54.42;;;;;;;24.47;54.83;103580.94;5075642;28;20398;-63
2022/03/17 08:33:04;;;;;;;85.65;54.03;;;;;;;24.38;53.16;103580.97;5075651;28;20056;-61
2022/03/17 08:35:29;;;;;;;79.65;47.83;;;;;;;24.44;52.74;103581.22;5075286;28;20029;-62
2022/03/17 08:37:57;;;;;;;70.75;44.45;;;;;;;24.43;52.69;103589.63;5075661;28;20038;-61
2022/03/17 08:40:22;;;;;;;79.03;47.92;;;;;;;24.44;52.18;103581.22;5075381;28;20349;-65
2022/03/17 08:42:48;;;;;;;76.35;43.72;;;;;;;24.27;53.49;103584.69;5075608;28;20028;-65
2022/03/17 08:50:43;;;;;;;69.03;41.78;;;;;;;24.23;52.27;103575.00;5095727;28;20039;-65
2022/03/17 08:53:08;;;;;;;70.53;41.63;;;;;;;24.26;52.92;103572.81;5095767;28;20478;-65
2022/03/17 08:55:34;;;;;;;67.07;40.65;;;;;;;24.27;50.92;103571.81;5095454;28;20032;-64
2022/03/17 08:58:00;;;;;;;70.88;42.53;;;;;;;24.25;51.88;103564.72;5095549;28;20020;-65
2022/03/17 09:00:25;;;;;;;66.07;40.05;;;;;;;24.24;51.39;103563.84;5095326;28;20032;-64
2022/03/17 09:02:53;;;;;;;70.30;42.72;;;;;;;24.34;51.51;103560.25;5095546;28;20145;-64
2022/03/17 09:05:18;;;;;;;67.47;40.38;;;;;;;24.29;50.87;103558.81;5095216;28;20437;-64
2022/03/17 09:07:43;;;;;;;70.38;41.47;;;;;;;24.30;51.21;103551.44;5095451;28;20158;-64
2022/03/17 09:10:09;;;;;;;66.47;39.05;;;;;;;24.27;52.66;103563.56;5095209;28;20024;-64
2022/03/17 09:12:35;;;;;;;67.38;40.92;;;;;;;24.30;51.13;103557.78;5095174;28;20383;-64
2022/03/17 09:15:00;;;;;;;64.90;39.90;;;;;;;24.25;49.62;103565.59;5093929;28;20028;-64
2022/03/17 09:17:26;;;;;;;65.28;40.55;;;;;;;24.24;50.56;103550.13;5088052;28;20387;-64
2022/03/17 09:19:52;;;;;;;70.00;42.85;;;;;;;24.27;50.64;103547.06;5085300;28;20027;-64
2022/03/17 09:22:17;;;;;;;64.50;40.33;;;;;;;24.32;50.88;103548.53;5094424;28;20020;-63
2022/03/17 09:24:45;;;;;;;69.47;39.53;;;;;;;24.25;51.07;103540.84;5095071;28;20023;-67
2022/03/17 09:27:11;;;;;;;68.38;40.28;;;;;;;24.25;50.12;103543.59;5094867;28;20059;-65
2022/03/17 09:29:38;;;;;;;70.72;42.05;;;;;;;24.23;50.39;103553.00;5094795;28;20471;-65
2022/03/17 09:32:04;;;;;;;72.22;42.33;;;;;;;24.32;50.15;103549.41;5076086;28;20240;-66
2022/03/17 09:34:32;;;;;;;65.07;40.25;;;;;;;24.27;49.96;103541.56;5074511;28;20494;-65
2022/03/17 09:36:57;;;;;;;75.35;41.83;;;;;;;24.26;50.49;103539.84;5074642;28;20036;-65
2022/03/17 09:42:06;;;;;;;75.47;41.25;;;;;;;24.28;50.68;103537.81;5074738;28;20039;-65
2022/03/17 09:44:32;;;;;;;69.32;41.17;;;;;;;24.29;51.82;103539.56;5074332;28;20028;-64
2022/03/17 09:46:59;;;;;;;72.65;42.65;;;;;;;24.24;50.73;103536.38;5074299;28;20028;-65
2022/03/17 09:49:26;;;;;;;72.25;41.78;;;;;;;24.25;50.92;103540.84;5074133;28;20048;-65
2022/03/17 09:51:54;;;;;;;73.32;42.08;;;;;;;24.32;51.46;103543.03;5074388;28;20051;-64
2022/03/17 09:54:20;;;;;;;76.70;43.03;;;;;;;24.28;51.85;103543.31;5073928;28;20103;-65
2022/03/17 09:56:45;;;;;;;73.93;43.30;;;;;;;24.38;52.03;103542.47;5074289;28;20158;-65
2022/03/17 09:59:10;;;;;;;69.47;41.80;;;;;;;24.38;52.34;103536.97;5074093;28;20032;-65
2022/03/17 10:01:36;;;;;;;73.13;41.38;;;;;;;24.78;54.50;103534.84;5073896;28;20073;-66
2022/03/17 10:04:03;;;;;;;70.50;40.28;;;;;;;25.06;54.70;103529.41;5074007;28;20031;-63
2022/03/17 10:06:29;;;;;;;63.28;36.90;;;;;;;25.13;55.99;103528.63;5073749;28;20040;-64
2022/03/17 10:08:56;;;;;;;64.35;38.33;;;;;;;25.15;56.77;103522.97;5074054;28;20073;-65
2022/03/17 10:11:31;;;;;;;59.55;36.03;;;;;;;25.21;57.71;103519.63;5073616;28;20040;-63
2022/03/17 10:13:58;;;;;;;56.92;34.95;;;;;;;25.22;58.39;103518.59;5076179;28;20364;-65
2022/03/17 10:16:24;;;;;;;52.20;33.25;;;;;;;25.26;57.75;103511.75;5093873;28;20024;-65
2022/03/17 10:19:01;;;;;;;54.00;33.40;;;;;;;25.27;58.89;103512.63;5094039;28;20024;-64
2022/03/17 10:21:28;;;;;;;49.15;30.60;;;;;;;25.29;58.61;103516.09;5092366;28;20024;-65
2022/03/17 10:24:04;;;;;;;48.38;30.30;;;;;;;25.30;59.68;103507.66;5093948;28;20048;-65
2022/03/17 10:26:30;;;;;;;42.35;28.10;;;;;;;25.30;59.16;103507.66;5093660;28;20028;-64
2022/03/17 10:29:12;;;;;;;44.67;26.67;;;;;;;25.34;59.31;103514.59;5093870;28;20020;-65
2022/03/17 10:32:02;;;;;;;42.35;26.65;;;;;;;25.33;59.54;103501.84;5093356;28;20036;-65
2022/03/17 10:34:33;;;;;;;40.45;25.02;;;;;;;25.38;59.42;103509.66;5092619;28;20421;-64
2022/03/17 10:37:10;;;;;;;39.90;24.15;;;;;;;25.36;60.72;103507.06;5094010;28;20028;-65
2022/03/17 10:39:37;;;;;;;39.83;24.33;;;;;;;25.39;60.41;103497.63;5093492;28;20032;-65
2022/03/17 10:42:11;;;;;;;33.90;22.73;;;;;;;25.41;60.14;103492.84;5093579;28;20043;-65
2022/03/17 10:44:39;;;;;;;35.25;22.05;;;;;;;25.40;60.88;103491.97;5085261;28;20032;-65
2022/03/17 10:47:05;;;;;;;32.40;22.10;;;;;;;25.43;60.55;103499.03;5073263;28;20021;-65
2022/03/17 10:50:04;;;;;;;37.17;23.13;;;;;;;25.41;60.41;103501.97;5072851;28;20065;-65
2022/03/17 10:52:51;;;;;;;59.55;34.53;;;;;;;24.92;56.36;103503.22;5072905;28;20031;-65
2022/03/17 10:55:28;;;;;;;76.38;40.75;;;;;;;24.73;55.44;103504.16;5010625;28;20477;-65
2022/03/17 10:57:58;;;;;;;102.93;51.33;;;;;;;24.65;55.77;103500.41;5011002;28;20148;-67
2022/03/17 11:00:25;;;;;;;108.20;55.05;;;;;;;24.63;55.28;103497.81;5010758;28;20030;-65
2022/03/17 11:02:56;;;;;;;97.82;54.47;;;;;;;24.68;54.56;103500.97;5010977;28;20041;-66
2022/03/17 11:05:22;;;;;;;106.50;56.17;;;;;;;24.74;54.18;103494.88;5010569;28;20030;-66
2022/03/17 11:07:47;;;;;;;96.60;52.53;;;;;;;24.65;54.39;103493.03;5010779;28;20520;-65
2022/03/17 11:10:15;;;;;;;107.90;56.63;;;;;;;24.65;54.25;103490.28;5010627;28;20041;-65
2022/03/17 11:12:42;;;;;;;107.00;56.20;;;;;;;24.63;53.87;103488.69;5010697;28;20069;-67
2022/03/17 11:15:08;;;;;;;110.28;61.00;;;;;;;24.57;53.77;103487.41;5013008;28;20030;-65
2022/03/17 11:17:40;;;;;;;112.82;61.95;;;;;;;24.65;54.76;103479.25;5010521;28;20062;-66
2022/03/17 11:20:07;;;;;;;108.90;58.05;;;;;;;24.63;54.52;103480.44;5010569;28;20100;-66
2022/03/17 11:22:34;;;;;;;122.20;62.20;;;;;;;24.59;55.16;103490.88;5010437;28;20102;-65
2022/03/17 11:25:25;;;;;;;115.68;59.58;;;;;;;24.66;55.06;103483.75;5010582;28;20041;-66